地図

経路データ

SID SEASON NUMBER BASIN SUBBASIN NAME ISO_TIME NATURE LAT LON WMO_WIND WMO_PRES WMO_AGENCY TRACK_TYPE DIST2LAND LANDFALL IFLAG USA_AGENCY USA_ATCF_ID USA_LAT USA_LON USA_RECORD USA_STATUS USA_WIND USA_PRES USA_SSHS USA_R34_NE USA_R34_SE USA_R34_SW USA_R34_NW USA_R50_NE USA_R50_SE USA_R50_SW USA_R50_NW USA_R64_NE USA_R64_SE USA_R64_SW USA_R64_NW USA_POCI USA_ROCI USA_RMW USA_EYE TOKYO_LAT TOKYO_LON TOKYO_GRADE TOKYO_WIND TOKYO_PRES TOKYO_R50_DIR TOKYO_R50_LONG TOKYO_R50_SHORT TOKYO_R30_DIR TOKYO_R30_LONG TOKYO_R30_SHORT TOKYO_LAND CMA_LAT CMA_LON CMA_CAT CMA_WIND CMA_PRES HKO_LAT HKO_LON HKO_CAT HKO_WIND HKO_PRES NEWDELHI_LAT NEWDELHI_LON NEWDELHI_GRADE NEWDELHI_WIND NEWDELHI_PRES NEWDELHI_CI NEWDELHI_DP NEWDELHI_POCI REUNION_LAT REUNION_LON REUNION_TYPE REUNION_WIND REUNION_PRES REUNION_TNUM REUNION_CI REUNION_RMW REUNION_R34_NE REUNION_R34_SE REUNION_R34_SW REUNION_R34_NW REUNION_R50_NE REUNION_R50_SE REUNION_R50_SW REUNION_R50_NW REUNION_R64_NE REUNION_R64_SE REUNION_R64_SW REUNION_R64_NW BOM_LAT BOM_LON BOM_TYPE BOM_WIND BOM_PRES BOM_TNUM BOM_CI BOM_RMW BOM_R34_NE BOM_R34_SE BOM_R34_SW BOM_R34_NW BOM_R50_NE BOM_R50_SE BOM_R50_SW BOM_R50_NW BOM_R64_NE BOM_R64_SE BOM_R64_SW BOM_R64_NW BOM_ROCI BOM_POCI BOM_EYE BOM_POS_METHOD BOM_PRES_METHOD NADI_LAT NADI_LON NADI_CAT NADI_WIND NADI_PRES WELLINGTON_LAT WELLINGTON_LON WELLINGTON_WIND WELLINGTON_PRES DS824_LAT DS824_LON DS824_STAGE DS824_WIND DS824_PRES TD9636_LAT TD9636_LON TD9636_STAGE TD9636_WIND TD9636_PRES TD9635_LAT TD9635_LON TD9635_WIND TD9635_PRES TD9635_ROCI NEUMANN_LAT NEUMANN_LON NEUMANN_CLASS NEUMANN_WIND NEUMANN_PRES MLC_LAT MLC_LON MLC_CLASS MLC_WIND MLC_PRES USA_GUST BOM_GUST BOM_GUST_PER REUNION_GUST REUNION_GUST_PER USA_SEAHGT USA_SEARAD_NE USA_SEARAD_SE USA_SEARAD_SW USA_SEARAD_NW STORM_SPEED STORM_DIR
2020206N11343 2020 35 NA NA ISAIAS 2020-07-23 18:00:00 NR 11.1000 -17.1000 PROVISIONAL 133 133 O_____________ nhc_working_bt AL092020 11.1000 -17.1000 DB 20 1010 -3 11 270
2020206N11343 2020 35 NA NA ISAIAS 2020-07-23 21:00:00 NR 11.1002 -17.6500 PROVISIONAL 175 175 P_____________ AL092020 11.1002 -17.6500 DB 20 1010 -3 11 270
2020206N11343 2020 35 NA NA ISAIAS 2020-07-24 00:00:00 NR 11.1000 -18.2000 PROVISIONAL 210 210 O_____________ nhc_working_bt AL092020 11.1000 -18.2000 DB 20 1010 -3 11 270
2020206N11343 2020 35 NA NA ISAIAS 2020-07-24 03:00:00 NR 11.0999 -18.7500 PROVISIONAL 253 253 P_____________ AL092020 11.0999 -18.7500 DB 20 1010 -3 11 270
2020206N11343 2020 35 NA NA ISAIAS 2020-07-24 06:00:00 NR 11.1000 -19.3000 PROVISIONAL 308 308 O_____________ nhc_working_bt AL092020 11.1000 -19.3000 DB 20 1010 -3 10 270
2020206N11343 2020 35 NA NA ISAIAS 2020-07-24 09:00:00 NR 11.1071 -19.8050 PROVISIONAL 357 357 P_____________ AL092020 11.1071 -19.8050 DB 20 1010 -3 11 270
2020206N11343 2020 35 NA NA ISAIAS 2020-07-24 12:00:00 NR 11.1000 -20.4000 PROVISIONAL 418 418 O_____________ nhc_working_bt AL092020 11.1000 -20.4000 DB 20 1010 -3 13 268
2020206N11343 2020 35 NA NA ISAIAS 2020-07-24 15:00:00 NR 11.0648 -21.1750 PROVISIONAL 500 500 P_____________ AL092020 11.0648 -21.1750 DB 20 1010 -3 17 267
2020206N11343 2020 35 NA NA ISAIAS 2020-07-24 18:00:00 DS 11.0000 -22.1000 PROVISIONAL 598 598 O_____________ nhc_working_bt AL092020 11.0000 -22.1000 WV 20 1010 -3 1012 120 50 19 265
2020206N11343 2020 35 NA NA ISAIAS 2020-07-24 21:00:00 DS 10.9001 -23.1426 PROVISIONAL 706 706 P_____________ AL092020 10.9001 -23.1426 WV 20 1010 -3 1012 120 50 21 264
2020206N11343 2020 35 NA NA ISAIAS 2020-07-25 00:00:00 DS 10.8000 -24.2000 PROVISIONAL 826 826 O_____________ nhc_working_bt AL092020 10.8000 -24.2000 WV 20 1010 -3 1012 120 50 19 265
2020206N11343 2020 35 NA NA ISAIAS 2020-07-25 03:00:00 DS 10.7419 -25.1074 PROVISIONAL 924 924 P_____________ AL092020 10.7419 -25.1074 WV 22 1010 -3 1012 120 50 18 267
2020206N11343 2020 35 NA NA ISAIAS 2020-07-25 06:00:00 DS 10.7000 -26.0000 PROVISIONAL 1020 1020 O_____________ nhc_working_bt AL092020 10.7000 -26.0000 WV 25 1010 -3 1012 120 50 19 267
2020206N11343 2020 35 NA NA ISAIAS 2020-07-25 09:00:00 DS 10.6423 -26.9851 PROVISIONAL 1128 1128 P_____________ AL092020 10.6423 -26.9851 WV 25 1010 -3 1012 120 50 20 267
2020206N11343 2020 35 NA NA ISAIAS 2020-07-25 12:00:00 DS 10.6000 -28.0000 PROVISIONAL 1228 1228 O_____________ nhc_working_bt AL092020 10.6000 -28.0000 WV 25 1010 -3 1012 120 50 20 267
2020206N11343 2020 35 NA NA ISAIAS 2020-07-25 15:00:00 DS 10.5397 -29.0005 PROVISIONAL 1333 1333 P_____________ AL092020 10.5397 -29.0005 WV 25 1010 -3 1012 120 50 20 270
2020206N11343 2020 35 NA NA ISAIAS 2020-07-25 18:00:00 DS 10.6000 -30.0000 PROVISIONAL 1432 1432 O_____________ nhc_working_bt AL092020 10.6000 -30.0000 WV 25 1010 -3 1012 120 50 20 282
2020206N11343 2020 35 NA NA ISAIAS 2020-07-25 21:00:00 DS 10.9343 -30.9620 PROVISIONAL 1524 1521 P_____________ AL092020 10.9343 -30.9620 WV 22 1010 -3 1012 120 50 21 290
2020206N11343 2020 35 NA NA ISAIAS 2020-07-26 00:00:00 NR 11.3000 -32.0000 PROVISIONAL 1616 1616 O_____________ nhc_working_bt AL092020 11.3000 -32.0000 DB 20 1010 -3 1012 120 50 23 283
2020206N11343 2020 35 NA NA ISAIAS 2020-07-26 03:00:00 NR 11.4375 -33.2205 PROVISIONAL 1740 1720 P_____________ AL092020 11.4375 -33.2205 DB 20 1010 -3 1012 120 50 25 275
2020206N11343 2020 35 NA NA ISAIAS 2020-07-26 06:00:00 NR 11.5000 -34.5000 PROVISIONAL 1716 1686 O_____________ nhc_working_bt AL092020 11.5000 -34.5000 DB 20 1010 -3 1012 120 50 25 274
2020206N11343 2020 35 NA NA ISAIAS 2020-07-26 09:00:00 NR 11.6076 -35.7673 PROVISIONAL 1683 1669 P_____________ AL092020 11.6076 -35.7673 DB 22 1010 -3 1012 120 50 24 275
2020206N11343 2020 35 NA NA ISAIAS 2020-07-26 12:00:00 NR 11.7000 -36.9000 PROVISIONAL 1667 1653 O_____________ nhc_working_bt AL092020 11.7000 -36.9000 DB 25 1010 -3 1012 120 50 19 274
2020206N11343 2020 35 NA NA ISAIAS 2020-07-26 15:00:00 NR 11.7566 -37.7451 PROVISIONAL 1663 1640 P_____________ AL092020 11.7566 -37.7451 DB 25 1010 -3 1012 135 75 16 274
2020206N11343 2020 35 NA NA ISAIAS 2020-07-26 18:00:00 NR 11.8000 -38.5000 PROVISIONAL 1640 1571 O_____________ nhc_working_bt AL092020 11.8000 -38.5000 DB 25 1010 -3 1012 150 100 35 16 274
2020206N11343 2020 35 NA NA ISAIAS 2020-07-26 21:00:00 NR 11.8570 -39.3475 PROVISIONAL 1571 1489 P_____________ AL092020 11.8570 -39.3475 DB 25 1009 -3 1011 165 125 18 273
2020206N11343 2020 35 NA NA ISAIAS 2020-07-27 00:00:00 NR 11.9000 -40.3000 PROVISIONAL 1480 1383 O_____________ nhc_working_bt AL092020 11.9000 -40.3000 DB 25 1009 -3 1011 180 150 35 20 271
2020206N11343 2020 35 NA NA ISAIAS 2020-07-27 03:00:00 NR 11.9001 -41.4277 PROVISIONAL 1383 1289 P_____________ AL092020 11.9001 -41.4277 DB 25 1009 -3 1011 180 150 23 270
2020206N11343 2020 35 NA NA ISAIAS 2020-07-27 06:00:00 NR 11.9000 -42.6000 PROVISIONAL 1281 1201 O_____________ nhc_working_bt AL092020 11.9000 -42.6000 DB 25 1009 -3 1011 180 150 22 271
2020206N11343 2020 35 NA NA ISAIAS 2020-07-27 09:00:00 NR 11.9422 -43.6949 PROVISIONAL 1193 1134 P_____________ AL092020 11.9422 -43.6949 DB 25 1009 -3 1011 180 150 21 273
2020206N11343 2020 35 NA NA ISAIAS 2020-07-27 12:00:00 DS 12.0000 -44.7000 PROVISIONAL 1127 1073 O_____________ nhc_working_bt AL092020 12.0000 -44.7000 LO 25 1009 -3 1011 180 150 35 18 273
2020206N11343 2020 35 NA NA ISAIAS 2020-07-27 15:00:00 DS 12.0494 -45.5725 PROVISIONAL 1066 1026 P_____________ AL092020 12.0494 -45.5725 LO 25 1008 -3 1010 195 150 17 273
2020206N11343 2020 35 NA NA ISAIAS 2020-07-27 18:00:00 DS 12.1000 -46.4000 PROVISIONAL 1026 974 O_____________ nhc_working_bt AL092020 12.1000 -46.4000 LO 25 1008 -3 1010 210 150 35 16 274
2020206N11343 2020 35 NA NA ISAIAS 2020-07-27 21:00:00 DS 12.1488 -47.2102 PROVISIONAL 974 927 P_____________ AL092020 12.1488 -47.2102 LO 25 1008 -3 1010 210 165 18 273
2020206N11343 2020 35 NA NA ISAIAS 2020-07-28 00:00:00 DS 12.2000 -48.2000 PROVISIONAL 921 853 O_____________ nhc_working_bt AL092020 12.2000 -48.2000 LO 25 1008 -3 1011 210 180 35 23 272
2020206N11343 2020 35 NA NA ISAIAS 2020-07-28 03:00:00 DS 12.2429 -49.5678 PROVISIONAL 849 798 P_____________ AL092020 12.2429 -49.5678 LO 27 1008 -3 1011 210 180 28 272
2020206N11343 2020 35 NA NA ISAIAS 2020-07-28 06:00:00 DS 12.3000 -51.1000 PROVISIONAL 793 740 O_____________ nhc_working_bt AL092020 12.3000 -51.1000 LO 30 1008 -3 1011 210 180 30 272
2020206N11343 2020 35 NA NA ISAIAS 2020-07-28 09:00:00 DS 12.3548 -52.5879 PROVISIONAL 749 741 P_____________ AL092020 12.3548 -52.5879 LO 32 1007 -3 1011 255 165 25 282
2020206N11343 2020 35 NA NA ISAIAS 2020-07-28 12:00:00 DS 12.8333 -53.6000 PROVISIONAL 775 775 O_____________ nhc_working_bt AL092020 12.5000 -54.0000 LO 35 1007 -3 200 120 1012 300 150 45 21 298
2020206N11343 2020 35 NA NA ISAIAS 2020-07-28 15:00:00 DS 13.3263 -54.4696 PROVISIONAL 764 695 P_____________ AL092020 12.7893 -55.2674 LO 35 1007 -3 200 120 1010 255 150 21 296
2020206N11343 2020 35 NA NA ISAIAS 2020-07-28 18:00:00 DS 13.7400 -55.5000 PROVISIONAL 685 587 O_____________ nhc_working_bt AL092020 13.2000 -56.4000 LO 35 1007 -3 200 120 1009 210 150 45 25 286
2020206N11343 2020 35 NA NA ISAIAS 2020-07-28 21:00:00 DS 13.9966 -56.9134 PROVISIONAL 578 489 P_____________ AL092020 13.6991 -57.4225 LO 37 1006 -3 200 120 1010 210 150 29 279
2020206N11343 2020 35 NA NA ISAIAS 2020-07-29 00:00:00 DS 14.2000 -58.4000 PROVISIONAL 483 458 O_____________ nhc_working_bt AL092020 14.2000 -58.4000 LO 40 1006 -3 200 120 1011 210 150 45 12 330 25 282
2020206N11343 2020 35 NA NA ISAIAS 2020-07-29 03:00:00 DS 14.5306 -59.4642 PROVISIONAL 455 455 P_____________ AL092020 14.5869 -59.4279 LO 40 1006 -3 220 120 1010 205 150 12 330 21 290
2020206N11343 2020 35 NA CS ISAIAS 2020-07-29 06:00:00 DS 14.9000 -60.4333 PROVISIONAL 474 472 O_____________ nhc_working_bt AL092020 14.9000 -60.5000 LO 40 1006 -3 240 120 1010 200 150 50 12 330 22 289
2020206N11343 2020 35 NA CS ISAIAS 2020-07-29 09:00:00 DS 15.2444 -61.6215 PROVISIONAL 503 431 P_____________ AL092020 15.2028 -61.6797 LO 40 1006 -3 240 120 1010 200 150 12 375 24 286
2020206N11343 2020 35 NA CS ISAIAS 2020-07-29 12:00:00 DS 15.5333 -62.8000 PROVISIONAL 424 325 O_____________ nhc_working_bt AL092020 15.4000 -62.8000 LO 40 1006 -3 240 120 1010 200 150 50 12 420 22 284
2020206N11343 2020 35 NA CS ISAIAS 2020-07-29 15:00:00 DS 15.7647 -63.8607 PROVISIONAL 318 262 P_____________ AL092020 15.4295 -63.7331 LO 40 1005 -3 240 120 1009 190 150 12 410 19 280
2020206N11343 2020 35 NA CS ISAIAS 2020-07-29 18:00:00 DS 15.8667 -64.7667 PROVISIONAL 257 251 O_____________ nhc_working_bt AL092020 15.4000 -64.5000 LO 40 1005 -3 240 120 1009 180 150 50 12 400 16 267
2020206N11343 2020 35 NA CS ISAIAS 2020-07-29 21:00:00 DS 15.6944 -65.4996 PROVISIONAL 257 254 P_____________ AL092020 15.3593 -65.1158 LO 42 1004 -3 270 120 1009 180 150 12 400 13 260
2020206N11343 2020 35 NA CS ISAIAS 2020-07-30 00:00:00 TS 15.6333 -66.1000 PROVISIONAL 257 215 O_____________ nhc_working_bt AL092020 15.5000 -65.7000 TS 45 1004 0 300 120 1009 180 150 55 12 400 12 289
2020206N11343 2020 35 NA CS ISAIAS 2020-07-30 03:00:00 TS 16.0738 -66.6521 PROVISIONAL 202 134 P_____________ AL092020 16.0326 -66.4417 TS 47 1003 0 330 180 1008 180 120 12 410 15 315
2020206N11343 2020 35 NA CS ISAIAS 2020-07-30 06:00:00 TS 16.7000 -67.2000 PROVISIONAL 134 99 O_____________ nhc_working_bt AL092020 16.7000 -67.2000 TS 50 1003 0 360 60 240 90 1008 180 90 60 12 420 16 314
2020206N11343 2020 35 NA CS ISAIAS 2020-07-30 09:00:00 TS 17.1799 -67.8306 PROVISIONAL 100 56 P_____________ AL092020 17.1846 -67.8660 TS 52 1002 0 315 75 225 85 1008 180 85 12 420 16 309
2020206N11343 2020 35 NA CS ISAIAS 2020-07-30 12:00:00 TS 17.7000 -68.5000 PROVISIONAL 56 15 O_____________ nhc_working_bt AL092020 17.7000 -68.5000 TS 55 1002 0 270 90 210 80 1008 180 80 60 12 420 300 18 313
2020206N11343 2020 35 NA CS ISAIAS 2020-07-30 15:00:00 TS 18.3765 -69.1806 PROVISIONAL 11 0 P_____________ AL092020 18.4147 -69.1422 TS 57 1000 0 240 105 195 80 1008 190 80 12 420 330 19 316
2020206N11343 2020 35 NA NA ISAIAS 2020-07-30 18:00:00 TS 19.0333 -69.8667 PROVISIONAL 0 0 O_____________ nhc_working_bt AL092020 19.1000 -69.8000 TS 60 999 0 210 120 180 80 1008 200 80 60 12 420 360 17 312
2020206N11343 2020 35 NA NA ISAIAS 2020-07-30 21:00:00 TS 19.5212 -70.5239 PROVISIONAL 0 0 P_____________ AL092020 19.5597 -70.4856 TS 62 997 0 210 120 180 80 1008 175 50 15 305
2020206N11343 2020 35 NA NA ISAIAS 2020-07-31 00:00:00 TS 19.9000 -71.2000 PROVISIONAL 11 11 O_____________ nhc_working_bt AL092020 19.9000 -71.2000 HU 65 996 1 210 120 180 80 25 1008 150 20 60 15 297
2020206N11343 2020 35 NA NA ISAIAS 2020-07-31 03:00:00 TS 20.2050 -71.9556 PROVISIONAL 49 49 P_____________ AL092020 20.2000 -71.9580 HU 67 993 1 195 105 165 85 32 1008 135 20 15 293
2020206N11343 2020 35 NA NA ISAIAS 2020-07-31 06:00:00 TS 20.5000 -72.7000 PROVISIONAL 67 11 O_____________ nhc_working_bt AL092020 20.5000 -72.7000 HU 70 990 1 180 90 50 150 90 40 30 80 40 20 11 30 1008 120 20 85 12 330 210 90 360 15 297
2020206N11343 2020 35 NA NA ISAIAS 2020-07-31 09:00:00 TS 20.8796 -73.3561 PROVISIONAL 11 0 P_____________ AL092020 20.8847 -73.3801 HU 67 991 1 180 90 50 150 90 40 30 80 40 20 11 30 1008 120 20 12 330 210 90 360 14 304
2020206N11343 2020 35 NA NA ISAIAS 2020-07-31 12:00:00 TS 21.3000 -73.9667 PROVISIONAL 38 38 O_____________ nhc_working_bt AL092020 21.3000 -74.0000 HU 65 992 1 180 90 50 150 90 40 30 80 40 20 11 30 1008 120 20 80 12 330 210 90 360 15 306
2020206N11343 2020 35 NA NA ISAIAS 2020-07-31 15:00:00 TS 21.7384 -74.6066 PROVISIONAL 114 114 P_____________ AL092020 21.6999 -74.5877 HU 65 991 1 165 80 40 140 85 35 65 35 20 25 1008 120 17 12 315 180 90 330 14 308
2020206N11343 2020 35 NA NA ISAIAS 2020-07-31 18:00:00 TS 22.1667 -75.1667 PROVISIONAL 140 140 O_____________ nhc_working_bt AL092020 22.1000 -75.1000 HU 65 991 1 150 70 30 130 80 30 50 30 20 20 1008 120 15 80 12 300 150 90 300 12 312
2020206N11343 2020 35 NA NA ISAIAS 2020-07-31 21:00:00 TS 22.5505 -75.5688 PROVISIONAL 168 168 P_____________ AL092020 22.5072 -75.5228 HU 67 989 1 150 70 30 130 80 30 50 30 20 20 1008 120 15 12 300 150 90 300 10 317
2020206N11343 2020 35 NA NA ISAIAS 2020-08-01 00:00:00 TS 22.9000 -75.9000 PROVISIONAL 182 178 O_____________ nhc_working_bt AL092020 22.9000 -75.9000 HU 70 987 1 150 70 30 130 80 30 50 30 20 20 1009 120 15 85 12 300 150 90 300 9 316
2020206N11343 2020 35 NA NA ISAIAS 2020-08-01 03:00:00 TS 23.2140 -76.2571 PROVISIONAL 186 157 P_____________ AL092020 23.2574 -76.3003 HU 72 987 1 150 70 30 130 80 30 50 30 20 20 1009 120 12 12 300 150 90 300 9 313
2020206N11343 2020 35 NA NA ISAIAS 2020-08-01 06:00:00 TS 23.5333 -76.6333 PROVISIONAL 157 97 O_____________ nhc_working_bt AL092020 23.6000 -76.7000 HU 75 987 1 150 70 30 130 80 30 50 30 20 20 1009 120 10 90 12 300 150 90 300 10 314
2020206N11343 2020 35 NA NA ISAIAS 2020-08-01 09:00:00 TS 23.9267 -77.0615 PROVISIONAL 90 30 P_____________ AL092020 23.9649 -77.1001 HU 72 987 1 125 70 30 115 65 30 40 25 17 20 1009 120 10 12 255 150 67 240 11 314
2020206N11343 2020 35 NA NA ISAIAS 2020-08-01 12:00:00 TS 24.3000 -77.5000 PROVISIONAL 30 0 O_____________ nhc_working_bt AL092020 24.3000 -77.5000 HU 70 987 1 100 70 30 100 50 30 30 20 15 20 1009 120 10 90 12 210 150 45 180 10 309
2020206N11343 2020 35 NA NA ISAIAS 2020-08-01 15:00:00 TS 24.5700 -77.9203 PROVISIONAL 0 0 P_____________ AL092020 24.5650 -77.9152 HU 65 989 1 95 60 95 45 30 30 10 7 10 1009 120 15 12 180 97 135 9 304
2020206N11343 2020 35 NA NA ISAIAS 2020-08-01 18:00:00 TS 24.8000 -78.3000 PROVISIONAL 0 0 O_____________ nhc_working_bt AL092020 24.8000 -78.3000 TS 60 992 0 90 50 90 40 30 30 1009 120 20 75 12 150 45 90 8 306
2020206N11343 2020 35 NA NA ISAIAS 2020-08-01 21:00:00 TS 25.0424 -78.6376 PROVISIONAL 37 37 P_____________ AL092020 25.0424 -78.6376 TS 60 992 0 95 50 90 40 30 30 1009 110 20 12 150 45 90 7 313
2020206N11343 2020 35 NA NA ISAIAS 2020-08-02 00:00:00 TS 25.3000 -78.9000 PROVISIONAL 82 82 O_____________ nhc_working_bt AL092020 25.3000 -78.9000 TS 60 993 0 100 50 90 40 30 30 1010 100 20 75 12 150 45 90 7 324
2020206N11343 2020 35 NA NA ISAIAS 2020-08-02 03:00:00 TS 25.5899 -79.0727 PROVISIONAL 102 89 P_____________ AL092020 25.5849 -79.0727 TS 57 994 0 100 65 75 50 30 1010 125 30 12 150 45 90 7 336
2020206N11343 2020 35 NA NA ISAIAS 2020-08-02 06:00:00 TS 25.9000 -79.2000 PROVISIONAL 89 69 O_____________ nhc_working_bt AL092020 25.9000 -79.2000 TS 55 996 0 100 80 60 60 30 1010 150 40 65 12 150 45 90 7 337
2020206N11343 2020 35 NA NA ISAIAS 2020-08-02 09:00:00 TS 26.1967 -79.3600 PROVISIONAL 69 59 P_____________ AL092020 26.2350 -79.3649 TS 55 995 0 100 80 60 60 30 1010 150 35 12 150 67 82 7 337
2020206N11343 2020 35 NA NA ISAIAS 2020-08-02 12:00:00 TS 26.5333 -79.5000 PROVISIONAL 59 39 O_____________ nhc_working_bt AL092020 26.6000 -79.5000 TS 55 995 0 100 80 60 60 30 1010 150 30 65 12 150 90 30 75 8 344
2020206N11343 2020 35 NA NA ISAIAS 2020-08-02 15:00:00 TS 26.9567 -79.6033 PROVISIONAL 45 45 P_____________ AL092020 26.9925 -79.5652 TS 57 994 0 100 80 60 55 30 1010 150 30 12 150 90 30 75 9 350
2020206N11343 2020 35 NA NA ISAIAS 2020-08-02 18:00:00 TS 27.4000 -79.6667 PROVISIONAL 54 54 O_____________ nhc_working_bt AL092020 27.4000 -79.6000 TS 60 994 0 100 80 60 50 30 20 1010 150 30 75 12 150 90 30 75 8 355
2020206N11343 2020 35 NA NA ISAIAS 2020-08-02 21:00:00 TS 27.7833 -79.6811 PROVISIONAL 72 72 P_____________ AL092020 27.7925 -79.6426 TS 60 994 0 100 80 60 50 30 20 1010 135 30 12 150 82 30 82 8 358
2020206N11343 2020 35 NA NA ISAIAS 2020-08-03 00:00:00 TS 28.1667 -79.7000 PROVISIONAL 85 68 O_____________ nhc_working_bt AL092020 28.2000 -79.7000 TS 60 995 0 100 80 60 50 30 20 1010 120 30 75 12 150 75 30 90 8 353
2020206N11343 2020 35 NA NA ISAIAS 2020-08-03 03:00:00 TS 28.5700 -79.7875 PROVISIONAL 69 67 P_____________ AL092020 28.6275 -79.7925 TS 60 994 0 100 95 60 50 30 20 1011 135 30 12 150 75 30 90 9 348
2020206N11343 2020 35 NA NA ISAIAS 2020-08-03 06:00:00 TS 29.0333 -79.9000 PROVISIONAL 80 80 O_____________ nhc_working_bt AL092020 29.1000 -79.9000 TS 60 994 0 100 110 60 50 30 20 1012 150 30 75 12 150 75 30 90 11 348
2020206N11343 2020 35 NA NA ISAIAS 2020-08-03 09:00:00 TS 29.6067 -80.0443 PROVISIONAL 103 95 P_____________ AL092020 29.6425 -80.0443 TS 60 996 0 100 110 60 50 30 20 1012 150 30 12 135 97 37 82 12 351
2020206N11343 2020 35 NA NA ISAIAS 2020-08-03 12:00:00 TS 30.2000 -80.1000 PROVISIONAL 123 123 O_____________ nhc_working_bt AL092020 30.2000 -80.1000 TS 60 998 0 100 110 60 50 30 20 1012 150 30 75 12 120 120 45 75 11 4
2020206N11343 2020 35 NA NA ISAIAS 2020-08-03 15:00:00 TS 30.6675 -79.9598 PROVISIONAL 133 133 P_____________ AL092020 30.6625 -79.9598 TS 62 994 0 105 110 60 50 40 20 1012 150 25 12 135 120 52 82 11 19
2020206N11343 2020 35 NA NA ISAIAS 2020-08-03 18:00:00 TS 31.2000 -79.7000 PROVISIONAL 137 91 O_____________ nhc_working_bt AL092020 31.2000 -79.7000 HU 65 991 1 110 110 60 50 50 20 20 20 1012 150 20 75 12 150 120 60 90 13 20
2020206N11343 2020 35 NA NA ISAIAS 2020-08-03 21:00:00 TS 31.9098 -79.4436 PROVISIONAL 96 43 P_____________ AL092020 31.9098 -79.4436 HU 70 989 1 110 110 60 50 50 25 20 20 1012 155 20 12 135 150 75 75 17 18
2020206N11343 2020 35 NA NA ISAIAS 2020-08-04 00:00:00 TS 32.8000 -79.1000 PROVISIONAL 35 9 O_____________ nhc_working_bt AL092020 32.8000 -79.1000 HU 75 988 1 110 110 70 60 50 50 40 30 20 20 20 1012 160 20 90 12 120 180 90 60 20 19
2020206N11343 2020 35 NA NA ISAIAS 2020-08-04 03:00:00 TS 33.8175 -78.6510 PROVISIONAL 9 0 P_____________ AL092020 33.8175 -78.6510 HU 67 990 1 110 115 55 50 45 50 10 10 10 1012 160 30 12 120 180 90 45 24 21
2020206N11343 2020 35 NA NA ISAIAS 2020-08-04 06:00:00 TS 35.0000 -78.1000 PROVISIONAL 0 0 O_____________ nhc_working_bt AL092020 35.0000 -78.1000 TS 60 992 0 110 120 40 40 40 50 1012 160 40 75 12 120 180 90 30 26 21
2020206N11343 2020 35 NA NA ISAIAS 2020-08-04 09:00:00 TS 36.2747 -77.4991 PROVISIONAL 0 0 P_____________ AL092020 36.2747 -77.4991 TS 60 992 0 110 120 40 40 50 55 1012 160 45 12 150 180 29 21
2020206N11343 2020 35 NA NA ISAIAS 2020-08-04 12:00:00 TS 37.7000 -76.8000 PROVISIONAL 0 0 O_____________ nhc_working_bt AL092020 37.7000 -76.8000 TS 60 993 0 110 120 40 40 60 60 1012 160 50 75 12 180 180 32 22
2020206N11343 2020 35 NA NA ISAIAS 2020-08-04 15:00:00 TS 39.2696 -76.0003 PROVISIONAL 0 0 P_____________ AL092020 39.2696 -76.0003 TS 57 993 0 115 135 40 40 60 70 1012 160 60 12 240 35 22
2020206N11343 2020 35 NA NA ISAIAS 2020-08-04 18:00:00 TS 40.9000 -75.1000 PROVISIONAL 0 0 O_____________ nhc_working_bt AL092020 40.9000 -75.1000 TS 55 994 0 120 150 40 40 60 80 1012 160 70 65 12 300 90 36 24
2020206N11343 2020 35 NA NA ISAIAS 2020-08-04 21:00:00 TS 42.5110 -74.0515 PROVISIONAL 0 0 P_____________ AL092020 42.5110 -74.0515 TS 50 996 0 90 150 30 40 1010 142 95 12 300 90 34 25
2020206N11343 2020 35 NA NA ISAIAS 2020-08-05 00:00:00 ET 44.0000 -73.1000 PROVISIONAL 0 0 O_____________ nhc_working_bt AL092020 44.0000 -73.1000 EX 45 998 -4 60 150 1008 125 120 55 12 300 90 30 22
2020206N11343 2020 35 NA NA ISAIAS 2020-08-05 03:00:00 ET 45.2664 -72.4899 PROVISIONAL 0 0 P_____________ AL092020 45.2664 -72.4899 EX 40 999 -4 75 120 1010 212 105 25 16
2020206N11343 2020 35 NA NA ISAIAS 2020-08-05 06:00:00 ET 46.4000 -72.1000 PROVISIONAL 0 O_____________ nhc_working_bt AL092020 46.4000 -72.1000 EX 35 1000 -4 90 90 1012 300 90 45 23 13

IBTrACS Databaseについて

本データベースは、米国NOAAが公開する1842年以降の世界の熱帯低気圧のベストトラックデータアーカイブInternational Best Track Archive for Climate Stewardship (IBTrACS)を、ウェブで閲覧しやすい形式に変換したものです。

最終更新日:2021-10-08